sensor_id;sensor_type;location;lat;lon;timestamp;temperature;humidity
20400;DHT22;10359;53.596;22.520;2022-10-22T00:01:53;8.30;99.90
20400;DHT22;10359;53.596;22.520;2022-10-22T00:04:22;8.40;99.90
20400;DHT22;10359;53.596;22.520;2022-10-22T00:06:51;8.30;99.90
20400;DHT22;10359;53.596;22.520;2022-10-22T00:09:22;8.40;99.90
20400;DHT22;10359;53.596;22.520;2022-10-22T00:11:53;8.30;99.90
20400;DHT22;10359;53.596;22.520;2022-10-22T00:14:22;8.30;99.90
20400;DHT22;10359;53.596;22.520;2022-10-22T00:16:51;8.40;99.90
20400;DHT22;10359;53.596;22.520;2022-10-22T00:19:26;8.30;99.90
20400;DHT22;10359;53.596;22.520;2022-10-22T00:21:58;8.30;99.90
20400;DHT22;10359;53.596;22.520;2022-10-22T00:24:38;8.30;99.90
20400;DHT22;10359;53.596;22.520;2022-10-22T00:27:09;8.20;99.90
20400;DHT22;10359;53.596;22.520;2022-10-22T00:29:38;8.30;99.90
20400;DHT22;10359;53.596;22.520;2022-10-22T00:32:07;8.30;99.90
20400;DHT22;10359;53.596;22.520;2022-10-22T00:34:42;8.30;99.90
20400;DHT22;10359;53.596;22.520;2022-10-22T00:37:10;8.30;99.90
20400;DHT22;10359;53.596;22.520;2022-10-22T00:39:41;8.30;99.90
20400;DHT22;10359;53.596;22.520;2022-10-22T00:42:16;8.30;99.90
20400;DHT22;10359;53.596;22.520;2022-10-22T00:45:09;8.20;99.90
20400;DHT22;10359;53.596;22.520;2022-10-22T00:47:43;8.30;99.90
20400;DHT22;10359;53.596;22.520;2022-10-22T00:50:19;8.20;99.90
20400;DHT22;10359;53.596;22.520;2022-10-22T00:52:49;8.20;99.90
20400;DHT22;10359;53.596;22.520;2022-10-22T00:55:20;8.20;99.90
20400;DHT22;10359;53.596;22.520;2022-10-22T00:57:59;8.10;99.90
20400;DHT22;10359;53.596;22.520;2022-10-22T01:00:29;8.10;99.90
20400;DHT22;10359;53.596;22.520;2022-10-22T01:02:58;8.10;99.90
20400;DHT22;10359;53.596;22.520;2022-10-22T01:05:40;8.10;99.90
20400;DHT22;10359;53.596;22.520;2022-10-22T01:08:17;8.00;99.90
20400;DHT22;10359;53.596;22.520;2022-10-22T01:11:11;8.00;99.90
20400;DHT22;10359;53.596;22.520;2022-10-22T01:13:48;8.10;99.90
20400;DHT22;10359;53.596;22.520;2022-10-22T01:16:27;8.10;99.90
20400;DHT22;10359;53.596;22.520;2022-10-22T01:19:09;8.10;99.90
20400;DHT22;10359;53.596;22.520;2022-10-22T01:21:44;8.10;99.90
20400;DHT22;10359;53.596;22.520;2022-10-22T01:24:38;8.10;99.90
20400;DHT22;10359;53.596;22.520;2022-10-22T01:27:19;8.10;99.90
20400;DHT22;10359;53.596;22.520;2022-10-22T01:29:57;8.10;99.90
20400;DHT22;10359;53.596;22.520;2022-10-22T01:32:29;8.10;99.90
20400;DHT22;10359;53.596;22.520;2022-10-22T01:35:00;8.10;99.90
20400;DHT22;10359;53.596;22.520;2022-10-22T01:37:37;8.10;99.90
20400;DHT22;10359;53.596;22.520;2022-10-22T01:40:11;8.10;99.90
20400;DHT22;10359;53.596;22.520;2022-10-22T01:42:54;8.10;99.90
20400;DHT22;10359;53.596;22.520;2022-10-22T01:45:25;8.10;99.90
20400;DHT22;10359;53.596;22.520;2022-10-22T01:48:05;8.10;99.90
20400;DHT22;10359;53.596;22.520;2022-10-22T01:51:03;8.10;99.90
20400;DHT22;10359;53.596;22.520;2022-10-22T01:53:39;8.10;99.90
20400;DHT22;10359;53.596;22.520;2022-10-22T01:56:26;8.10;99.90
20400;DHT22;10359;53.596;22.520;2022-10-22T01:59:16;8.00;99.90
20400;DHT22;10359;53.596;22.520;2022-10-22T02:01:54;8.10;99.90
20400;DHT22;10359;53.596;22.520;2022-10-22T02:04:40;8.10;99.90
20400;DHT22;10359;53.596;22.520;2022-10-22T02:07:14;8.10;99.90
20400;DHT22;10359;53.596;22.520;2022-10-22T02:09:48;8.10;99.90
20400;DHT22;10359;53.596;22.520;2022-10-22T02:14:53;8.20;99.90
20400;DHT22;10359;53.596;22.520;2022-10-22T02:17:28;8.20;99.90
20400;DHT22;10359;53.596;22.520;2022-10-22T02:20:00;8.10;99.90
20400;DHT22;10359;53.596;22.520;2022-10-22T02:22:31;8.20;99.90
20400;DHT22;10359;53.596;22.520;2022-10-22T02:25:05;8.10;99.90
20400;DHT22;10359;53.596;22.520;2022-10-22T02:27:37;8.20;99.90
20400;DHT22;10359;53.596;22.520;2022-10-22T02:30:10;8.20;99.90
20400;DHT22;10359;53.596;22.520;2022-10-22T02:32:48;8.20;99.90
20400;DHT22;10359;53.596;22.520;2022-10-22T02:35:20;8.10;99.90
20400;DHT22;10359;53.596;22.520;2022-10-22T02:37:50;8.10;99.90
20400;DHT22;10359;53.596;22.520;2022-10-22T02:40:20;8.10;99.90
20400;DHT22;10359;53.596;22.520;2022-10-22T02:42:50;8.10;99.90
20400;DHT22;10359;53.596;22.520;2022-10-22T02:45:20;8.10;99.90
20400;DHT22;10359;53.596;22.520;2022-10-22T02:47:51;8.10;99.90
20400;DHT22;10359;53.596;22.520;2022-10-22T02:50:20;8.10;99.90
20400;DHT22;10359;53.596;22.520;2022-10-22T02:52:50;8.10;99.90
20400;DHT22;10359;53.596;22.520;2022-10-22T02:55:19;8.20;99.90
20400;DHT22;10359;53.596;22.520;2022-10-22T02:57:48;8.20;99.90
20400;DHT22;10359;53.596;22.520;2022-10-22T03:00:17;8.20;99.90
20400;DHT22;10359;53.596;22.520;2022-10-22T03:02:46;8.20;99.90
20400;DHT22;10359;53.596;22.520;2022-10-22T03:05:16;8.20;99.90
20400;DHT22;10359;53.596;22.520;2022-10-22T03:07:45;8.20;99.90
20400;DHT22;10359;53.596;22.520;2022-10-22T03:10:14;8.20;99.90
20400;DHT22;10359;53.596;22.520;2022-10-22T03:12:43;8.20;99.90
20400;DHT22;10359;53.596;22.520;2022-10-22T03:15:12;8.20;99.90
20400;DHT22;10359;53.596;22.520;2022-10-22T03:17:41;8.20;99.90
20400;DHT22;10359;53.596;22.520;2022-10-22T03:20:11;8.00;99.90
20400;DHT22;10359;53.596;22.520;2022-10-22T03:22:43;8.00;99.90
20400;DHT22;10359;53.596;22.520;2022-10-22T03:25:15;8.10;99.90
20400;DHT22;10359;53.596;22.520;2022-10-22T03:27:47;8.00;99.90
20400;DHT22;10359;53.596;22.520;2022-10-22T03:30:16;8.00;99.90
20400;DHT22;10359;53.596;22.520;2022-10-22T03:32:45;8.00;99.90
20400;DHT22;10359;53.596;22.520;2022-10-22T03:35:14;8.00;99.90
20400;DHT22;10359;53.596;22.520;2022-10-22T03:37:45;8.00;99.90
20400;DHT22;10359;53.596;22.520;2022-10-22T03:40:14;8.00;99.90
20400;DHT22;10359;53.596;22.520;2022-10-22T03:42:46;7.90;99.90
20400;DHT22;10359;53.596;22.520;2022-10-22T03:45:15;8.00;99.90
20400;DHT22;10359;53.596;22.520;2022-10-22T03:47:44;8.00;99.90
20400;DHT22;10359;53.596;22.520;2022-10-22T03:50:12;7.90;99.90
20400;DHT22;10359;53.596;22.520;2022-10-22T03:52:41;7.90;99.90
20400;DHT22;10359;53.596;22.520;2022-10-22T03:55:12;7.90;99.90
20400;DHT22;10359;53.596;22.520;2022-10-22T03:57:41;7.90;99.90
20400;DHT22;10359;53.596;22.520;2022-10-22T04:00:10;7.90;99.90
20400;DHT22;10359;53.596;22.520;2022-10-22T04:02:39;7.80;99.90
20400;DHT22;10359;53.596;22.520;2022-10-22T04:05:08;7.80;99.90
20400;DHT22;10359;53.596;22.520;2022-10-22T04:07:38;7.80;99.90
20400;DHT22;10359;53.596;22.520;2022-10-22T04:10:08;7.80;99.90
20400;DHT22;10359;53.596;22.520;2022-10-22T04:12:38;7.80;99.90
20400;DHT22;10359;53.596;22.520;2022-10-22T04:15:08;7.80;99.90
20400;DHT22;10359;53.596;22.520;2022-10-22T04:17:37;7.70;99.90
20400;DHT22;10359;53.596;22.520;2022-10-22T04:20:08;7.70;99.90
20400;DHT22;10359;53.596;22.520;2022-10-22T04:22:37;7.60;99.90
20400;DHT22;10359;53.596;22.520;2022-10-22T04:25:06;7.50;99.90
20400;DHT22;10359;53.596;22.520;2022-10-22T04:27:35;7.50;99.90
20400;DHT22;10359;53.596;22.520;2022-10-22T04:30:08;7.50;99.90
20400;DHT22;10359;53.596;22.520;2022-10-22T04:32:37;7.50;99.90
20400;DHT22;10359;53.596;22.520;2022-10-22T04:35:06;7.50;99.90
20400;DHT22;10359;53.596;22.520;2022-10-22T04:37:36;7.50;99.90
20400;DHT22;10359;53.596;22.520;2022-10-22T04:40:06;7.40;99.90
20400;DHT22;10359;53.596;22.520;2022-10-22T04:42:35;7.40;99.90
20400;DHT22;10359;53.596;22.520;2022-10-22T04:45:07;7.50;99.90
20400;DHT22;10359;53.596;22.520;2022-10-22T04:47:36;7.40;99.90
20400;DHT22;10359;53.596;22.520;2022-10-22T04:50:06;7.50;99.90
20400;DHT22;10359;53.596;22.520;2022-10-22T04:52:35;7.40;99.90
20400;DHT22;10359;53.596;22.520;2022-10-22T04:55:05;7.50;99.90
20400;DHT22;10359;53.596;22.520;2022-10-22T04:57:33;7.50;99.90
20400;DHT22;10359;53.596;22.520;2022-10-22T05:00:03;7.50;99.90
20400;DHT22;10359;53.596;22.520;2022-10-22T05:02:34;7.50;99.90
20400;DHT22;10359;53.596;22.520;2022-10-22T05:05:03;7.50;99.90
20400;DHT22;10359;53.596;22.520;2022-10-22T05:07:32;7.50;99.90
20400;DHT22;10359;53.596;22.520;2022-10-22T05:10:01;7.50;99.90
20400;DHT22;10359;53.596;22.520;2022-10-22T05:12:29;7.50;99.90
20400;DHT22;10359;53.596;22.520;2022-10-22T05:14:58;7.50;99.90
20400;DHT22;10359;53.596;22.520;2022-10-22T05:17:27;7.50;99.90
20400;DHT22;10359;53.596;22.520;2022-10-22T05:19:58;7.60;99.90
20400;DHT22;10359;53.596;22.520;2022-10-22T05:22:26;7.50;99.90
20400;DHT22;10359;53.596;22.520;2022-10-22T05:24:55;7.50;99.90
20400;DHT22;10359;53.596;22.520;2022-10-22T05:27:24;7.50;99.90
20400;DHT22;10359;53.596;22.520;2022-10-22T05:29:53;7.50;99.90
20400;DHT22;10359;53.596;22.520;2022-10-22T05:32:22;7.60;99.90
20400;DHT22;10359;53.596;22.520;2022-10-22T05:34:50;7.50;99.90
20400;DHT22;10359;53.596;22.520;2022-10-22T05:37:21;7.60;99.90
20400;DHT22;10359;53.596;22.520;2022-10-22T05:39:50;7.60;99.90
20400;DHT22;10359;53.596;22.520;2022-10-22T05:42:38;7.60;99.90
20400;DHT22;10359;53.596;22.520;2022-10-22T05:45:08;7.70;99.90
20400;DHT22;10359;53.596;22.520;2022-10-22T05:47:37;7.70;99.90
20400;DHT22;10359;53.596;22.520;2022-10-22T05:50:07;7.70;99.90
20400;DHT22;10359;53.596;22.520;2022-10-22T05:52:37;7.80;99.90
20400;DHT22;10359;53.596;22.520;2022-10-22T05:55:07;7.80;99.90
20400;DHT22;10359;53.596;22.520;2022-10-22T05:57:36;7.80;99.90
20400;DHT22;10359;53.596;22.520;2022-10-22T06:00:06;7.90;99.90
20400;DHT22;10359;53.596;22.520;2022-10-22T06:02:40;7.90;99.90
20400;DHT22;10359;53.596;22.520;2022-10-22T06:05:09;8.00;99.90
20400;DHT22;10359;53.596;22.520;2022-10-22T06:07:39;7.90;99.90
20400;DHT22;10359;53.596;22.520;2022-10-22T06:10:10;8.00;99.90
20400;DHT22;10359;53.596;22.520;2022-10-22T06:12:41;8.00;99.90
20400;DHT22;10359;53.596;22.520;2022-10-22T06:15:11;8.10;99.90
20400;DHT22;10359;53.596;22.520;2022-10-22T06:17:42;8.20;99.90
20400;DHT22;10359;53.596;22.520;2022-10-22T06:20:12;8.20;99.90
20400;DHT22;10359;53.596;22.520;2022-10-22T06:22:42;8.30;99.90
20400;DHT22;10359;53.596;22.520;2022-10-22T06:25:11;8.30;99.90
20400;DHT22;10359;53.596;22.520;2022-10-22T06:27:40;8.30;99.90
20400;DHT22;10359;53.596;22.520;2022-10-22T06:30:10;8.40;99.90
20400;DHT22;10359;53.596;22.520;2022-10-22T06:32:39;8.50;99.90
20400;DHT22;10359;53.596;22.520;2022-10-22T06:35:08;8.40;99.90
20400;DHT22;10359;53.596;22.520;2022-10-22T06:37:37;8.40;99.90
20400;DHT22;10359;53.596;22.520;2022-10-22T06:40:10;8.30;99.90
20400;DHT22;10359;53.596;22.520;2022-10-22T06:42:39;8.50;99.90
20400;DHT22;10359;53.596;22.520;2022-10-22T06:45:09;8.50;99.90
20400;DHT22;10359;53.596;22.520;2022-10-22T06:47:39;8.50;99.90
20400;DHT22;10359;53.596;22.520;2022-10-22T06:50:08;8.60;99.90
20400;DHT22;10359;53.596;22.520;2022-10-22T06:52:37;8.60;99.90
20400;DHT22;10359;53.596;22.520;2022-10-22T06:55:08;8.60;99.90
20400;DHT22;10359;53.596;22.520;2022-10-22T06:57:37;8.80;99.90
20400;DHT22;10359;53.596;22.520;2022-10-22T07:00:08;8.70;99.90
20400;DHT22;10359;53.596;22.520;2022-10-22T07:02:37;8.80;99.90
20400;DHT22;10359;53.596;22.520;2022-10-22T07:05:07;8.80;99.90
20400;DHT22;10359;53.596;22.520;2022-10-22T07:07:36;8.80;99.90
20400;DHT22;10359;53.596;22.520;2022-10-22T07:10:06;8.90;99.90
20400;DHT22;10359;53.596;22.520;2022-10-22T07:12:36;8.90;99.90
20400;DHT22;10359;53.596;22.520;2022-10-22T07:15:06;8.90;99.90
20400;DHT22;10359;53.596;22.520;2022-10-22T07:17:35;9.00;99.90
20400;DHT22;10359;53.596;22.520;2022-10-22T07:20:08;9.00;99.90
20400;DHT22;10359;53.596;22.520;2022-10-22T07:22:37;8.90;99.90
20400;DHT22;10359;53.596;22.520;2022-10-22T07:25:07;8.90;99.90
20400;DHT22;10359;53.596;22.520;2022-10-22T07:27:37;9.10;99.90
20400;DHT22;10359;53.596;22.520;2022-10-22T07:30:08;9.20;99.90
20400;DHT22;10359;53.596;22.520;2022-10-22T07:32:37;9.30;99.90
20400;DHT22;10359;53.596;22.520;2022-10-22T07:35:06;9.40;99.90
20400;DHT22;10359;53.596;22.520;2022-10-22T07:37:35;9.40;99.90
20400;DHT22;10359;53.596;22.520;2022-10-22T07:40:06;9.50;99.90
20400;DHT22;10359;53.596;22.520;2022-10-22T07:42:34;9.40;99.90
20400;DHT22;10359;53.596;22.520;2022-10-22T07:45:06;9.50;99.90
20400;DHT22;10359;53.596;22.520;2022-10-22T07:47:35;9.50;99.90
20400;DHT22;10359;53.596;22.520;2022-10-22T07:50:05;9.70;99.90
20400;DHT22;10359;53.596;22.520;2022-10-22T07:52:35;9.80;99.90
20400;DHT22;10359;53.596;22.520;2022-10-22T07:55:05;9.90;99.90
20400;DHT22;10359;53.596;22.520;2022-10-22T07:57:34;10.00;99.90
20400;DHT22;10359;53.596;22.520;2022-10-22T08:00:06;10.00;99.90
20400;DHT22;10359;53.596;22.520;2022-10-22T08:02:35;10.00;99.90
20400;DHT22;10359;53.596;22.520;2022-10-22T08:05:05;10.10;99.90
20400;DHT22;10359;53.596;22.520;2022-10-22T08:07:34;10.20;99.90
20400;DHT22;10359;53.596;22.520;2022-10-22T08:10:04;10.00;99.90
20400;DHT22;10359;53.596;22.520;2022-10-22T08:12:33;10.30;99.90
20400;DHT22;10359;53.596;22.520;2022-10-22T08:15:02;10.40;99.90
20400;DHT22;10359;53.596;22.520;2022-10-22T08:17:33;10.60;99.90
20400;DHT22;10359;53.596;22.520;2022-10-22T08:20:02;10.70;99.90
20400;DHT22;10359;53.596;22.520;2022-10-22T08:22:31;10.70;99.90
20400;DHT22;10359;53.596;22.520;2022-10-22T08:24:59;10.90;99.90
20400;DHT22;10359;53.596;22.520;2022-10-22T08:27:28;11.00;99.90
20400;DHT22;10359;53.596;22.520;2022-10-22T08:29:57;11.00;99.90
20400;DHT22;10359;53.596;22.520;2022-10-22T08:32:26;11.00;99.90
20400;DHT22;10359;53.596;22.520;2022-10-22T08:34:56;11.10;99.90
20400;DHT22;10359;53.596;22.520;2022-10-22T08:37:25;10.90;99.90
20400;DHT22;10359;53.596;22.520;2022-10-22T08:39:54;10.90;99.90
20400;DHT22;10359;53.596;22.520;2022-10-22T08:42:42;11.00;99.90
20400;DHT22;10359;53.596;22.520;2022-10-22T08:45:16;11.10;99.90
20400;DHT22;10359;53.596;22.520;2022-10-22T08:48:05;11.20;99.90
20400;DHT22;10359;53.596;22.520;2022-10-22T08:50:39;11.10;99.90
20400;DHT22;10359;53.596;22.520;2022-10-22T08:53:13;11.00;99.90
20400;DHT22;10359;53.596;22.520;2022-10-22T08:55:43;11.00;99.90
20400;DHT22;10359;53.596;22.520;2022-10-22T08:58:19;10.90;99.90
20400;DHT22;10359;53.596;22.520;2022-10-22T09:00:57;10.90;99.90
20400;DHT22;10359;53.596;22.520;2022-10-22T09:03:43;10.70;99.90
20400;DHT22;10359;53.596;22.520;2022-10-22T09:06:17;10.80;99.90
20400;DHT22;10359;53.596;22.520;2022-10-22T09:08:47;10.90;99.90
20400;DHT22;10359;53.596;22.520;2022-10-22T09:11:24;10.90;99.90
20400;DHT22;10359;53.596;22.520;2022-10-22T09:13:54;11.10;99.90
20400;DHT22;10359;53.596;22.520;2022-10-22T09:16:33;11.10;99.90
20400;DHT22;10359;53.596;22.520;2022-10-22T09:19:15;11.20;99.90
20400;DHT22;10359;53.596;22.520;2022-10-22T09:21:51;11.30;99.90
20400;DHT22;10359;53.596;22.520;2022-10-22T09:24:32;11.30;99.90
20400;DHT22;10359;53.596;22.520;2022-10-22T09:27:10;11.30;99.90
20400;DHT22;10359;53.596;22.520;2022-10-22T09:29:39;11.20;99.90
20400;DHT22;10359;53.596;22.520;2022-10-22T09:32:09;11.20;99.90
20400;DHT22;10359;53.596;22.520;2022-10-22T09:34:38;11.00;99.90
20400;DHT22;10359;53.596;22.520;2022-10-22T09:37:09;11.00;99.90
20400;DHT22;10359;53.596;22.520;2022-10-22T09:39:42;10.80;99.90
20400;DHT22;10359;53.596;22.520;2022-10-22T09:42:15;10.90;99.90
20400;DHT22;10359;53.596;22.520;2022-10-22T09:44:51;10.90;99.90
20400;DHT22;10359;53.596;22.520;2022-10-22T09:47:31;10.80;99.90
20400;DHT22;10359;53.596;22.520;2022-10-22T09:50:26;10.80;99.90
20400;DHT22;10359;53.596;22.520;2022-10-22T09:53:03;10.60;99.90
20400;DHT22;10359;53.596;22.520;2022-10-22T09:55:32;10.70;99.90
20400;DHT22;10359;53.596;22.520;2022-10-22T09:58:01;10.70;99.90
20400;DHT22;10359;53.596;22.520;2022-10-22T10:00:30;10.80;99.90
20400;DHT22;10359;53.596;22.520;2022-10-22T10:02:59;10.80;99.90
20400;DHT22;10359;53.596;22.520;2022-10-22T10:05:30;10.90;99.90
20400;DHT22;10359;53.596;22.520;2022-10-22T10:08:11;11.00;99.90
20400;DHT22;10359;53.596;22.520;2022-10-22T10:10:46;11.00;99.90
20400;DHT22;10359;53.596;22.520;2022-10-22T10:13:28;11.00;99.90
20400;DHT22;10359;53.596;22.520;2022-10-22T10:16:03;11.10;99.90
20400;DHT22;10359;53.596;22.520;2022-10-22T10:18:54;11.10;99.90
20400;DHT22;10359;53.596;22.520;2022-10-22T10:21:32;11.10;99.90
20400;DHT22;10359;53.596;22.520;2022-10-22T10:24:12;11.30;99.90
20400;DHT22;10359;53.596;22.520;2022-10-22T10:26:51;11.40;99.90
20400;DHT22;10359;53.596;22.520;2022-10-22T10:29:32;11.10;99.90
20400;DHT22;10359;53.596;22.520;2022-10-22T10:32:23;11.10;99.90
20400;DHT22;10359;53.596;22.520;2022-10-22T10:35:06;11.20;99.90
20400;DHT22;10359;53.596;22.520;2022-10-22T10:37:40;11.20;99.90
20400;DHT22;10359;53.596;22.520;2022-10-22T10:40:25;11.20;99.90
20400;DHT22;10359;53.596;22.520;2022-10-22T10:42:59;11.30;99.90
20400;DHT22;10359;53.596;22.520;2022-10-22T10:45:34;11.30;99.90
20400;DHT22;10359;53.596;22.520;2022-10-22T10:48:26;11.30;99.90
20400;DHT22;10359;53.596;22.520;2022-10-22T10:51:06;11.40;99.90
20400;DHT22;10359;53.596;22.520;2022-10-22T10:53:46;11.50;99.90
20400;DHT22;10359;53.596;22.520;2022-10-22T10:56:32;11.50;99.90
20400;DHT22;10359;53.596;22.520;2022-10-22T10:59:18;11.40;99.90
20400;DHT22;10359;53.596;22.520;2022-10-22T11:02:01;11.50;99.90
20400;DHT22;10359;53.596;22.520;2022-10-22T11:05:00;11.60;99.90
20400;DHT22;10359;53.596;22.520;2022-10-22T11:07:38;11.60;99.90
20400;DHT22;10359;53.596;22.520;2022-10-22T11:10:12;11.50;99.90
20400;DHT22;10359;53.596;22.520;2022-10-22T11:12:50;11.60;99.90
20400;DHT22;10359;53.596;22.520;2022-10-22T11:15:26;11.70;99.90
20400;DHT22;10359;53.596;22.520;2022-10-22T11:18:01;11.70;99.90
20400;DHT22;10359;53.596;22.520;2022-10-22T11:20:38;11.80;99.90
20400;DHT22;10359;53.596;22.520;2022-10-22T11:23:12;11.80;99.90
20400;DHT22;10359;53.596;22.520;2022-10-22T11:25:48;11.70;99.90
20400;DHT22;10359;53.596;22.520;2022-10-22T11:28:22;11.80;99.90
20400;DHT22;10359;53.596;22.520;2022-10-22T11:30:58;11.70;99.90
20400;DHT22;10359;53.596;22.520;2022-10-22T11:33:36;11.80;99.90
20400;DHT22;10359;53.596;22.520;2022-10-22T11:36:10;11.80;99.90
20400;DHT22;10359;53.596;22.520;2022-10-22T11:38:40;11.70;99.90
20400;DHT22;10359;53.596;22.520;2022-10-22T11:41:12;11.60;99.90
20400;DHT22;10359;53.596;22.520;2022-10-22T11:44:09;11.70;99.90
20400;DHT22;10359;53.596;22.520;2022-10-22T11:46:42;11.70;99.90
20400;DHT22;10359;53.596;22.520;2022-10-22T11:49:23;11.80;99.90
20400;DHT22;10359;53.596;22.520;2022-10-22T11:52:05;11.70;99.90
20400;DHT22;10359;53.596;22.520;2022-10-22T11:54:53;11.60;99.90
20400;DHT22;10359;53.596;22.520;2022-10-22T11:57:26;11.60;99.90
20400;DHT22;10359;53.596;22.520;2022-10-22T11:59:58;11.60;99.90
20400;DHT22;10359;53.596;22.520;2022-10-22T12:02:41;11.40;99.90
20400;DHT22;10359;53.596;22.520;2022-10-22T12:05:32;11.40;99.90
20400;DHT22;10359;53.596;22.520;2022-10-22T12:08:24;11.40;99.90
20400;DHT22;10359;53.596;22.520;2022-10-22T12:11:05;11.30;99.90
20400;DHT22;10359;53.596;22.520;2022-10-22T12:14:02;11.30;99.90
20400;DHT22;10359;53.596;22.520;2022-10-22T12:16:38;11.40;99.90
20400;DHT22;10359;53.596;22.520;2022-10-22T12:19:26;11.40;99.90
20400;DHT22;10359;53.596;22.520;2022-10-22T12:21:57;11.40;99.90
20400;DHT22;10359;53.596;22.520;2022-10-22T12:24:30;11.40;99.90
20400;DHT22;10359;53.596;22.520;2022-10-22T12:27:00;11.40;99.90
20400;DHT22;10359;53.596;22.520;2022-10-22T12:29:31;11.40;99.90
20400;DHT22;10359;53.596;22.520;2022-10-22T12:32:03;11.50;99.90
20400;DHT22;10359;53.596;22.520;2022-10-22T12:34:32;11.60;99.90
20400;DHT22;10359;53.596;22.520;2022-10-22T12:37:03;11.70;99.90
20400;DHT22;10359;53.596;22.520;2022-10-22T12:39:33;11.70;99.90
20400;DHT22;10359;53.596;22.520;2022-10-22T12:42:04;11.80;99.90
20400;DHT22;10359;53.596;22.520;2022-10-22T12:44:33;11.60;99.90
20400;DHT22;10359;53.596;22.520;2022-10-22T12:47:05;11.70;99.90
20400;DHT22;10359;53.596;22.520;2022-10-22T12:49:37;11.70;99.90
20400;DHT22;10359;53.596;22.520;2022-10-22T12:52:12;11.60;99.90
20400;DHT22;10359;53.596;22.520;2022-10-22T12:54:44;11.60;99.90
20400;DHT22;10359;53.596;22.520;2022-10-22T12:57:16;11.60;99.90
20400;DHT22;10359;53.596;22.520;2022-10-22T12:59:48;11.60;99.90
20400;DHT22;10359;53.596;22.520;2022-10-22T13:02:21;11.60;99.90
20400;DHT22;10359;53.596;22.520;2022-10-22T13:05:16;11.70;99.90
20400;DHT22;10359;53.596;22.520;2022-10-22T13:07:49;11.70;99.90
20400;DHT22;10359;53.596;22.520;2022-10-22T13:10:23;11.60;99.90
20400;DHT22;10359;53.596;22.520;2022-10-22T13:12:55;11.60;99.90
20400;DHT22;10359;53.596;22.520;2022-10-22T13:15:36;11.70;99.90
20400;DHT22;10359;53.596;22.520;2022-10-22T13:18:16;11.70;99.90
20400;DHT22;10359;53.596;22.520;2022-10-22T13:20:55;11.70;99.90
20400;DHT22;10359;53.596;22.520;2022-10-22T13:23:27;11.70;99.90
20400;DHT22;10359;53.596;22.520;2022-10-22T13:25:58;11.70;99.90
20400;DHT22;10359;53.596;22.520;2022-10-22T13:28:29;11.80;99.90
20400;DHT22;10359;53.596;22.520;2022-10-22T13:31:00;11.70;99.90
20400;DHT22;10359;53.596;22.520;2022-10-22T13:33:36;11.60;99.90
20400;DHT22;10359;53.596;22.520;2022-10-22T13:36:06;11.70;99.90
20400;DHT22;10359;53.596;22.520;2022-10-22T13:38:36;11.70;99.90
20400;DHT22;10359;53.596;22.520;2022-10-22T13:41:17;11.70;99.90
20400;DHT22;10359;53.596;22.520;2022-10-22T13:43:46;11.70;99.90
20400;DHT22;10359;53.596;22.520;2022-10-22T13:46:18;11.70;99.90
20400;DHT22;10359;53.596;22.520;2022-10-22T13:48:51;11.60;99.90
20400;DHT22;10359;53.596;22.520;2022-10-22T13:51:22;11.70;99.90
20400;DHT22;10359;53.596;22.520;2022-10-22T13:53:53;11.70;99.90
20400;DHT22;10359;53.596;22.520;2022-10-22T13:56:22;11.70;99.90
20400;DHT22;10359;53.596;22.520;2022-10-22T13:58:52;11.80;99.90
20400;DHT22;10359;53.596;22.520;2022-10-22T14:01:22;11.70;99.90
20400;DHT22;10359;53.596;22.520;2022-10-22T14:03:55;11.80;99.90
20400;DHT22;10359;53.596;22.520;2022-10-22T14:06:26;11.80;99.90
20400;DHT22;10359;53.596;22.520;2022-10-22T14:09:02;11.80;99.90
20400;DHT22;10359;53.596;22.520;2022-10-22T14:11:32;11.80;99.90
20400;DHT22;10359;53.596;22.520;2022-10-22T14:14:01;11.70;99.90
20400;DHT22;10359;53.596;22.520;2022-10-22T14:16:36;11.70;99.90
20400;DHT22;10359;53.596;22.520;2022-10-22T14:19:11;11.70;99.90
20400;DHT22;10359;53.596;22.520;2022-10-22T14:21:42;11.60;99.90
20400;DHT22;10359;53.596;22.520;2022-10-22T14:24:11;11.60;99.90
20400;DHT22;10359;53.596;22.520;2022-10-22T14:26:40;11.60;99.90
20400;DHT22;10359;53.596;22.520;2022-10-22T14:29:09;11.60;99.90
20400;DHT22;10359;53.596;22.520;2022-10-22T14:31:39;11.60;99.90
20400;DHT22;10359;53.596;22.520;2022-10-22T14:34:13;11.50;99.90
20400;DHT22;10359;53.596;22.520;2022-10-22T14:36:42;11.50;99.90
20400;DHT22;10359;53.596;22.520;2022-10-22T14:39:12;11.50;99.90
20400;DHT22;10359;53.596;22.520;2022-10-22T14:41:41;11.50;99.90
20400;DHT22;10359;53.596;22.520;2022-10-22T14:44:11;11.50;99.90
20400;DHT22;10359;53.596;22.520;2022-10-22T14:46:41;11.50;99.90
20400;DHT22;10359;53.596;22.520;2022-10-22T14:49:12;11.50;99.90
20400;DHT22;10359;53.596;22.520;2022-10-22T14:51:41;11.60;99.90
20400;DHT22;10359;53.596;22.520;2022-10-22T14:54:10;11.50;99.90
20400;DHT22;10359;53.596;22.520;2022-10-22T14:56:38;11.50;99.90
20400;DHT22;10359;53.596;22.520;2022-10-22T14:59:07;11.40;99.90
20400;DHT22;10359;53.596;22.520;2022-10-22T15:01:37;11.40;99.90
20400;DHT22;10359;53.596;22.520;2022-10-22T15:04:08;11.50;99.90
20400;DHT22;10359;53.596;22.520;2022-10-22T15:06:39;11.40;99.90
20400;DHT22;10359;53.596;22.520;2022-10-22T15:09:08;11.30;99.90
20400;DHT22;10359;53.596;22.520;2022-10-22T15:11:37;11.40;99.90
20400;DHT22;10359;53.596;22.520;2022-10-22T15:14:06;11.40;99.90
20400;DHT22;10359;53.596;22.520;2022-10-22T15:16:35;11.40;99.90
20400;DHT22;10359;53.596;22.520;2022-10-22T15:19:04;11.40;99.90
20400;DHT22;10359;53.596;22.520;2022-10-22T15:21:33;11.50;99.90
20400;DHT22;10359;53.596;22.520;2022-10-22T15:24:04;11.50;99.90
20400;DHT22;10359;53.596;22.520;2022-10-22T15:26:33;11.70;99.90
20400;DHT22;10359;53.596;22.520;2022-10-22T15:29:02;11.50;99.90
20400;DHT22;10359;53.596;22.520;2022-10-22T15:31:44;11.30;99.90
20400;DHT22;10359;53.596;22.520;2022-10-22T15:34:18;11.40;99.90
20400;DHT22;10359;53.596;22.520;2022-10-22T15:36:47;11.30;99.90
20400;DHT22;10359;53.596;22.520;2022-10-22T15:39:17;11.40;99.90
20400;DHT22;10359;53.596;22.520;2022-10-22T15:41:47;11.30;99.90
20400;DHT22;10359;53.596;22.520;2022-10-22T15:44:18;11.30;99.90
20400;DHT22;10359;53.596;22.520;2022-10-22T15:46:47;11.40;99.90
20400;DHT22;10359;53.596;22.520;2022-10-22T15:49:22;11.40;99.90
20400;DHT22;10359;53.596;22.520;2022-10-22T15:51:51;11.40;99.90
20400;DHT22;10359;53.596;22.520;2022-10-22T15:54:24;11.40;99.90
20400;DHT22;10359;53.596;22.520;2022-10-22T15:56:54;11.30;99.90
20400;DHT22;10359;53.596;22.520;2022-10-22T15:59:24;11.40;99.90
20400;DHT22;10359;53.596;22.520;2022-10-22T16:01:53;11.40;99.90